Time;durP1;ratioP1;P1;durP2;ratioP2;P2;SDS_P1;SDS_P2;PMS_P1;PMS_P2;Temp;Humidity;BMP_temperature;BMP_pressure;BME280_temperature;BME280_humidity;BME280_pressure;Samples;Min_cycle;Max_cycle;Signal;HPM_P1;HPM_P2
2022/04/20 00:02:24;;;;;;;12.53;10.17;;;;;;;5.60;86.40;99373.00;5071780;28;20198;-56
2022/04/20 00:04:53;;;;;;;10.70;9.60;;;;;;;5.54;87.11;99374.44;5071736;28;20265;-57
2022/04/20 00:07:21;;;;;;;10.93;9.83;;;;;;;5.58;86.84;99383.91;5071767;28;20293;-56
2022/04/20 00:09:49;;;;;;;12.10;9.07;;;;;;;5.54;86.25;99394.84;5082720;28;20201;-59
2022/04/20 00:12:15;;;;;;;12.33;9.50;;;;;;;5.50;85.85;99377.69;5092120;28;20184;-59
2022/04/20 00:14:42;;;;;;;9.73;8.80;;;;;;;5.46;86.04;99376.75;5091504;28;20313;-61
2022/04/20 00:17:10;;;;;;;9.87;8.90;;;;;;;5.43;85.69;99383.41;5091755;28;20277;-59
2022/04/20 00:19:37;;;;;;;11.07;8.60;;;;;;;5.41;85.80;99380.81;5091355;28;20199;-59
2022/04/20 00:22:05;;;;;;;9.93;8.93;;;;;;;5.38;86.15;99390.03;5091519;28;20207;-58
2022/04/20 00:24:32;;;;;;;10.33;9.23;;;;;;;5.38;85.52;99383.25;5091329;28;20218;-58
2022/04/20 00:26:59;;;;;;;9.47;8.47;;;;;;;5.35;86.51;99389.13;5091478;28;20200;-58
2022/04/20 00:29:26;;;;;;;9.57;8.57;;;;;;;5.36;85.94;99388.28;5091223;28;20436;-59
2022/04/20 00:31:52;;;;;;;10.23;9.13;;;;;;;5.34;86.16;99387.38;5091117;28;20183;-59
2022/04/20 00:34:21;;;;;;;9.60;8.60;;;;;;;5.34;85.70;99400.09;5091167;28;20203;-60
2022/04/20 00:36:52;;;;;;;10.00;8.60;;;;;;;5.31;85.93;99396.56;5091003;28;20201;-59
2022/04/20 00:39:19;;;;;;;8.80;7.80;;;;;;;5.29;86.69;99401.63;5091372;28;20193;-59
2022/04/20 00:41:46;;;;;;;8.63;7.83;;;;;;;5.24;86.22;99400.59;5090967;28;20192;-59
2022/04/20 00:44:14;;;;;;;12.93;9.07;;;;;;;5.30;86.32;99403.34;5090967;28;20703;-59
2022/04/20 00:46:42;;;;;;;8.73;7.93;;;;;;;5.33;86.45;99407.69;5090918;28;20633;-59
2022/04/20 00:49:10;;;;;;;10.43;8.60;;;;;;;5.37;86.57;99407.00;5091265;28;20662;-59
2022/04/20 00:51:49;;;;;;;8.37;7.57;;;;;;;5.40;85.76;99401.13;5088444;28;20753;-59
2022/04/20 00:54:16;;;;;;;8.10;7.27;;;;;;;5.38;85.40;99396.84;5070820;28;20285;-59
2022/04/20 00:56:43;;;;;;;8.13;7.37;;;;;;;5.38;85.74;99392.56;5070767;28;20704;-59
2022/04/20 00:59:10;;;;;;;7.57;6.77;;;;;;;5.40;85.92;99393.50;5070611;28;20665;-59
2022/04/20 01:01:37;;;;;;;10.33;8.13;;;;;;;5.38;85.99;99394.28;5079579;28;20202;-58
2022/04/20 01:04:04;;;;;;;9.20;7.80;;;;;;;5.40;85.95;99393.50;5090113;28;20602;-59
2022/04/20 01:06:31;;;;;;;9.07;8.17;;;;;;;5.39;86.48;99392.63;5090336;28;20192;-59
2022/04/20 01:09:01;;;;;;;10.00;7.97;;;;;;;5.28;86.54;99394.78;5090029;28;20188;-59
2022/04/20 01:11:28;;;;;;;12.20;8.30;;;;;;;5.29;87.06;99399.09;5090070;28;20589;-59
2022/04/20 01:13:55;;;;;;;10.33;7.80;;;;;;;5.25;86.24;99391.25;5090382;28;20191;-56
2022/04/20 01:16:22;;;;;;;7.80;6.87;;;;;;;5.33;86.71;99395.81;5089508;28;20742;-56
2022/04/20 01:18:50;;;;;;;8.77;7.57;;;;;;;5.33;86.37;99397.50;5089922;28;20193;-56
2022/04/20 01:21:18;;;;;;;10.67;7.70;;;;;;;5.30;85.63;99393.16;5087337;28;20193;-56
2022/04/20 01:23:45;;;;;;;10.23;7.43;;;;;;;5.29;86.13;99385.47;5090009;28;20638;-56
2022/04/20 01:26:12;;;;;;;8.10;7.30;;;;;;;5.36;86.45;99392.50;5089991;28;20182;-56
2022/04/20 01:28:44;;;;;;;8.50;7.70;;;;;;;5.33;85.82;99397.50;5087072;28;20435;-56
2022/04/20 01:31:13;;;;;;;8.90;8.00;;;;;;;5.32;85.22;99383.03;5089830;28;20313;-56
2022/04/20 01:33:40;;;;;;;8.97;8.07;;;;;;;5.34;85.27;99378.84;5085780;28;20204;-56
2022/04/20 01:36:07;;;;;;;8.83;8.00;;;;;;;5.34;85.61;99378.84;5089836;28;20202;-59
2022/04/20 01:38:36;;;;;;;8.57;7.77;;;;;;;5.36;85.48;99382.31;5089712;28;20262;-59
2022/04/20 01:41:03;;;;;;;10.10;8.20;;;;;;;5.41;85.43;99377.41;5089934;28;20260;-59
2022/04/20 01:43:29;;;;;;;10.13;8.00;;;;;;;5.40;85.06;99381.63;5089512;28;20192;-59
2022/04/20 01:45:56;;;;;;;9.03;7.60;;;;;;;5.40;84.86;99383.28;5089601;28;20276;-59
2022/04/20 01:48:23;;;;;;;10.77;9.73;;;;;;;5.47;85.30;99390.31;5088577;28;20983;-59
2022/04/20 01:53:36;;;;;;;7.87;7.07;;;;;;;5.40;84.09;99363.78;5069037;28;20650;-59
2022/04/20 01:56:06;;;;;;;9.83;6.87;;;;;;;5.48;83.92;99374.22;5091814;28;20217;-59
2022/04/20 01:58:33;;;;;;;8.87;7.90;;;;;;;5.45;84.55;99379.22;5074012;28;20278;-59
2022/04/20 02:01:00;;;;;;;8.50;7.70;;;;;;;5.36;84.07;99378.09;5074100;28;20205;-59
2022/04/20 02:03:26;;;;;;;9.13;7.70;;;;;;;5.36;84.96;99380.63;5077476;28;20199;-59
2022/04/20 02:05:53;;;;;;;10.00;8.97;;;;;;;5.35;84.93;99372.97;5101657;28;20188;-58
2022/04/20 02:08:20;;;;;;;10.77;9.40;;;;;;;5.33;85.65;99379.66;5094847;28;20197;-58
2022/04/20 02:10:49;;;;;;;11.20;8.60;;;;;;;5.30;85.51;99372.78;5092912;28;20203;-59
2022/04/20 02:13:16;;;;;;;12.87;9.73;;;;;;;5.33;85.76;99372.88;5093444;28;20192;-58
2022/04/20 02:15:42;;;;;;;11.40;10.13;;;;;;;5.34;85.73;99371.22;5093380;28;20232;-59
2022/04/20 02:18:09;;;;;;;12.30;10.73;;;;;;;5.31;85.85;99363.47;5098019;28;20213;-59
2022/04/20 02:20:36;;;;;;;12.90;11.60;;;;;;;5.30;86.01;99370.22;5094622;28;20305;-59
2022/04/20 02:23:03;;;;;;;12.07;10.77;;;;;;;5.29;86.73;99373.63;5093260;28;20199;-59
2022/04/20 02:25:30;;;;;;;15.13;11.43;;;;;;;5.22;87.35;99373.31;5093418;28;20186;-59
2022/04/20 02:27:58;;;;;;;15.15;13.55;;;;;;;5.22;87.14;99374.19;5092380;28;20431;-59
2022/04/20 02:30:25;;;;;;;13.10;11.67;;;;;;;5.26;86.99;99385.38;5092942;28;20188;-59
2022/04/20 02:32:52;;;;;;;12.53;11.23;;;;;;;5.15;87.21;99382.44;5092964;28;20200;-58
2022/04/20 02:35:19;;;;;;;15.97;12.50;;;;;;;5.21;88.13;99391.97;5090157;28;20193;-59
2022/04/20 02:37:46;;;;;;;16.33;13.17;;;;;;;5.19;87.89;99381.72;5093032;28;20218;-59
2022/04/20 02:40:13;;;;;;;16.90;12.87;;;;;;;5.16;87.42;99381.66;5091076;28;20283;-60
2022/04/20 02:42:40;;;;;;;15.43;12.97;;;;;;;5.13;87.82;99379.00;5092962;28;20215;-59
2022/04/20 02:45:09;;;;;;;16.10;13.33;;;;;;;5.21;87.31;99386.88;5093208;28;20370;-60
2022/04/20 02:47:36;;;;;;;13.40;11.93;;;;;;;5.24;87.09;99392.97;5093204;28;20282;-59
2022/04/20 02:50:03;;;;;;;14.73;12.87;;;;;;;5.19;86.81;99386.81;5093293;28;20584;-59
2022/04/20 02:52:30;;;;;;;16.73;13.23;;;;;;;5.27;87.15;99389.66;5093089;28;20190;-58
2022/04/20 02:54:57;;;;;;;14.57;12.33;;;;;;;5.28;86.91;99399.00;5092999;28;20193;-59
2022/04/20 02:57:24;;;;;;;15.43;13.63;;;;;;;5.30;86.71;99393.16;5092823;28;20287;-59
2022/04/20 02:59:51;;;;;;;17.10;14.80;;;;;;;5.31;86.57;99400.00;5093146;28;20275;-61
2022/04/20 03:02:19;;;;;;;15.23;12.90;;;;;;;5.28;86.56;99402.44;5092934;28;20199;-59
2022/04/20 03:04:46;;;;;;;15.23;13.63;;;;;;;5.18;86.93;99408.03;5092585;28;20202;-59
2022/04/20 03:07:13;;;;;;;15.83;13.67;;;;;;;5.19;87.24;99406.34;5093004;28;20189;-59
2022/04/20 03:09:40;;;;;;;17.30;13.13;;;;;;;5.19;87.43;99398.72;5092759;28;20197;-59
2022/04/20 03:12:08;;;;;;;20.83;14.80;;;;;;;5.23;87.70;99405.63;5092736;28;20201;-59
2022/04/20 03:14:35;;;;;;;14.70;13.07;;;;;;;5.22;87.68;99402.22;5092697;28;20664;-59
2022/04/20 03:17:02;;;;;;;19.63;13.97;;;;;;;5.24;87.42;99404.81;5092734;28;20244;-59
2022/04/20 03:19:30;;;;;;;18.50;15.27;;;;;;;5.16;87.41;99402.00;5092842;28;20215;-59
2022/04/20 03:21:57;;;;;;;17.33;14.83;;;;;;;5.21;87.83;99400.50;5092825;28;20200;-59
2022/04/20 03:24:24;;;;;;;21.33;17.70;;;;;;;5.13;87.10;99404.44;5092915;28;20292;-59
2022/04/20 03:26:51;;;;;;;26.45;21.48;;;;;;;4.88;87.55;99386.53;5091984;28;20424;-59
2022/04/20 03:29:18;;;;;;;25.93;20.90;;;;;;;4.98;87.69;99411.50;5092239;28;20194;-59
2022/04/20 03:31:45;;;;;;;27.73;20.83;;;;;;;4.99;88.36;99413.25;5092189;28;20199;-59
2022/04/20 03:34:13;;;;;;;27.47;21.63;;;;;;;4.99;88.02;99415.81;5092820;28;20285;-59
2022/04/20 03:36:41;;;;;;;31.77;24.43;;;;;;;4.91;87.78;99409.56;5092205;28;20227;-59
2022/04/20 03:39:08;;;;;;;33.63;24.40;;;;;;;4.92;88.26;99418.03;5092261;28;20194;-59
2022/04/20 03:41:35;;;;;;;35.30;24.67;;;;;;;4.85;88.30;99422.06;5092569;28;20303;-59
2022/04/20 03:44:02;;;;;;;35.47;25.57;;;;;;;4.86;89.39;99423.81;5091728;28;20253;-59
2022/04/20 03:46:29;;;;;;;39.53;32.72;;;;;;;4.91;89.24;99434.16;5090899;28;20431;-59
2022/04/20 03:48:56;;;;;;;39.43;28.03;;;;;;;4.95;89.00;99431.75;5092315;28;20222;-59
2022/04/20 03:51:22;;;;;;;45.37;30.50;;;;;;;4.92;88.32;99438.41;5092056;28;20191;-59
2022/04/20 03:53:51;;;;;;;42.80;29.90;;;;;;;4.81;88.39;99425.28;5092184;28;20197;-59
2022/04/20 03:56:18;;;;;;;47.63;29.40;;;;;;;4.80;87.27;99428.66;5091851;28;20220;-59
2022/04/20 03:58:45;;;;;;;43.07;30.87;;;;;;;4.71;88.11;99430.84;5091650;28;20537;-59
2022/04/20 04:01:12;;;;;;;39.57;28.90;;;;;;;4.69;88.60;99435.03;5091634;28;20203;-60
2022/04/20 04:03:39;;;;;;;45.63;29.33;;;;;;;4.68;88.32;99439.25;5091506;28;20298;-58
2022/04/20 04:06:06;;;;;;;45.07;28.33;;;;;;;4.71;88.34;99446.13;5091546;28;20558;-58
2022/04/20 04:08:33;;;;;;;44.97;27.97;;;;;;;4.74;88.54;99443.69;5090675;28;20199;-61
2022/04/20 04:11:01;;;;;;;36.97;25.20;;;;;;;4.73;88.55;99432.63;5091501;28;20670;-58
2022/04/20 04:13:28;;;;;;;32.60;23.07;;;;;;;4.76;87.99;99424.25;5091523;28;20238;-58
2022/04/20 04:15:55;;;;;;;35.77;24.07;;;;;;;4.67;87.75;99406.97;5090790;28;20224;-58
2022/04/20 04:18:22;;;;;;;34.30;22.23;;;;;;;4.87;87.62;99435.72;5090866;28;20196;-58
2022/04/20 04:20:50;;;;;;;33.60;23.00;;;;;;;4.94;87.86;99437.69;5091485;28;20202;-58
2022/04/20 04:23:17;;;;;;;31.13;22.23;;;;;;;5.02;87.18;99436.28;5091236;28;20223;-58
2022/04/20 04:25:44;;;;;;;33.53;21.17;;;;;;;5.08;86.83;99436.50;5091215;28;20235;-58
2022/04/20 04:28:14;;;;;;;27.40;21.00;;;;;;;5.19;87.18;99445.38;5091132;28;20194;-58
2022/04/20 04:30:41;;;;;;;30.83;23.33;;;;;;;5.28;87.28;99443.19;5091364;28;20320;-58
2022/04/20 04:33:08;;;;;;;28.23;20.63;;;;;;;5.30;86.48;99449.19;5091070;28;20192;-58
2022/04/20 04:35:35;;;;;;;30.10;20.40;;;;;;;5.36;87.02;99441.78;5091170;28;20194;-58
2022/04/20 04:38:02;;;;;;;29.50;21.00;;;;;;;5.38;85.70;99444.41;5091068;28;20322;-58
2022/04/20 04:40:31;;;;;;;26.20;20.43;;;;;;;5.49;86.77;99443.09;5090945;28;20224;-59
2022/04/20 04:42:57;;;;;;;27.30;20.23;;;;;;;5.34;85.73;99440.88;5090575;28;20625;-59
2022/04/20 04:50:54;;;;;;;31.17;20.87;;;;;;;5.53;85.62;99439.81;5091058;28;20655;-59
2022/04/20 04:53:21;;;;;;;31.40;21.17;;;;;;;5.63;85.19;99446.97;5090658;28;20192;-58
2022/04/20 04:55:48;;;;;;;29.97;20.50;;;;;;;5.82;84.28;99448.50;5090616;28;20192;-59
2022/04/20 04:58:15;;;;;;;27.07;19.77;;;;;;;5.82;83.90;99433.19;5090753;28;20195;-58
2022/04/20 05:00:43;;;;;;;24.20;18.67;;;;;;;5.93;83.30;99449.75;5090129;28;20288;-59
2022/04/20 05:03:10;;;;;;;28.17;19.20;;;;;;;5.96;81.37;99447.28;5090661;28;20247;-59
2022/04/20 05:05:38;;;;;;;35.73;19.23;;;;;;;5.95;81.73;99448.13;5090502;28;20220;-59
2022/04/20 05:08:05;;;;;;;26.00;18.43;;;;;;;5.93;80.60;99442.09;5089924;28;20199;-59
2022/04/20 05:10:32;;;;;;;25.57;19.33;;;;;;;5.93;81.32;99434.47;5090487;28;20570;-59
2022/04/20 05:13:00;;;;;;;28.20;16.73;;;;;;;6.08;80.37;99442.59;5090424;28;20565;-58
2022/04/20 05:15:27;;;;;;;28.67;17.13;;;;;;;6.14;79.70;99441.94;5090152;28;20713;-60
2022/04/20 05:17:56;;;;;;;26.83;17.33;;;;;;;6.24;79.24;99444.81;5090481;28;20226;-60
2022/04/20 05:20:22;;;;;;;27.37;18.77;;;;;;;6.31;79.24;99441.69;5090279;28;20196;-59
2022/04/20 05:22:50;;;;;;;24.00;18.00;;;;;;;6.24;78.43;99408.25;5088667;28;20263;-59
2022/04/20 05:25:17;;;;;;;27.23;19.00;;;;;;;6.50;78.37;99435.47;5089536;28;20288;-58
2022/04/20 05:27:45;;;;;;;31.33;21.33;;;;;;;6.73;78.74;99434.47;5089324;28;20815;-58
2022/04/20 05:30:14;;;;;;;26.77;19.00;;;;;;;6.85;78.01;99439.06;5089950;28;20205;-59
2022/04/20 05:32:41;;;;;;;24.03;17.43;;;;;;;6.88;76.80;99440.03;5090359;28;20195;-59
2022/04/20 05:35:10;;;;;;;29.67;18.40;;;;;;;7.08;77.14;99438.06;5090264;28;20924;-59
2022/04/20 05:43:07;;;;;;;24.10;15.90;;;;;;;7.62;75.71;99424.28;5089801;28;20569;-59
2022/04/20 05:45:34;;;;;;;25.98;16.33;;;;;;;7.69;75.04;99415.91;5089966;28;20432;-59
2022/04/20 05:48:01;;;;;;;23.37;15.60;;;;;;;8.01;74.10;99410.78;5088357;28;20253;-59
2022/04/20 05:50:29;;;;;;;17.93;14.37;;;;;;;8.19;73.21;99412.06;5089290;28;20194;-58
2022/04/20 05:52:56;;;;;;;17.40;13.30;;;;;;;8.32;72.26;99410.72;5089831;28;20207;-59
2022/04/20 05:55:23;;;;;;;18.43;15.10;;;;;;;8.46;71.69;99428.97;5089726;28;20213;-59
2022/04/20 05:57:50;;;;;;;24.87;16.23;;;;;;;8.52;71.61;99429.97;5089528;28;20232;-59
2022/04/20 06:00:18;;;;;;;21.03;15.93;;;;;;;8.58;71.12;99422.44;5089395;28;20201;-59
2022/04/20 06:02:45;;;;;;;22.27;13.93;;;;;;;8.73;70.97;99421.91;5089588;28;20741;-59
2022/04/20 06:05:12;;;;;;;18.23;13.60;;;;;;;8.78;70.80;99422.88;5089391;28;20192;-59
2022/04/20 06:07:40;;;;;;;17.07;14.10;;;;;;;8.84;70.60;99417.91;5088197;28;20194;-59
2022/04/20 06:10:09;;;;;;;18.00;14.17;;;;;;;8.90;70.47;99411.19;5089579;28;20196;-59
2022/04/20 06:12:36;;;;;;;16.83;14.57;;;;;;;8.76;70.14;99404.91;5087481;28;20233;-59
2022/04/20 06:15:03;;;;;;;17.87;14.17;;;;;;;8.68;70.03;99400.47;5089447;28;20348;-59
2022/04/20 06:17:30;;;;;;;22.67;15.10;;;;;;;8.83;70.85;99390.53;5089510;28;20226;-59
2022/04/20 06:19:57;;;;;;;22.60;14.57;;;;;;;8.94;70.36;99383.94;5089708;28;20288;-60
2022/04/20 06:22:24;;;;;;;19.37;14.20;;;;;;;9.06;70.11;99383.34;5089700;28;21005;-60
2022/04/20 06:24:52;;;;;;;37.20;20.90;;;;;;;9.21;70.32;99381.06;5089198;28;21202;-59
2022/04/20 06:27:19;;;;;;;19.10;15.13;;;;;;;9.33;69.01;99378.75;5089604;28;20183;-60
2022/04/20 06:29:46;;;;;;;17.53;15.43;;;;;;;9.34;69.26;99365.06;5089426;28;20201;-59
2022/04/20 06:32:13;;;;;;;16.50;14.80;;;;;;;9.32;69.10;99369.31;5087460;28;20627;-59
2022/04/20 06:34:40;;;;;;;21.27;14.00;;;;;;;9.13;68.75;99373.22;5082869;28;20579;-59
2022/04/20 06:37:07;;;;;;;17.20;14.80;;;;;;;8.93;69.39;99376.25;5084856;28;20605;-59
2022/04/20 06:39:33;;;;;;;17.00;14.47;;;;;;;8.71;70.31;99352.72;5087856;28;20592;-59
2022/04/20 06:42:02;;;;;;;19.85;15.75;;;;;;;8.70;70.21;99370.63;5092761;28;20428;-59
2022/04/20 06:44:29;;;;;;;24.50;15.97;;;;;;;8.76;70.87;99373.31;5093084;28;20209;-59
2022/04/20 06:46:56;;;;;;;15.00;13.40;;;;;;;8.92;70.29;99377.06;5092743;28;20197;-59
2022/04/20 06:49:23;;;;;;;17.93;14.63;;;;;;;8.92;69.98;99379.63;5092713;28;20198;-59
2022/04/20 07:00:05;;;;;;;30.00;17.03;;;;;;;9.57;69.14;99397.16;5094314;28;20193;-60
2022/04/20 07:02:33;;;;;;;28.53;16.67;;;;;;;9.41;68.97;99395.13;5091113;28;20191;-59
2022/04/20 07:05:00;;;;;;;20.67;17.50;;;;;;;9.53;69.18;99397.06;5092322;28;20252;-59
2022/04/20 07:07:27;;;;;;;23.00;17.33;;;;;;;9.58;69.21;99396.31;5092315;28;20184;-59
2022/04/20 07:09:54;;;;;;;21.20;17.13;;;;;;;9.70;68.32;99395.66;5092237;28;20233;-60
2022/04/20 07:12:22;;;;;;;23.07;16.70;;;;;;;9.68;68.59;99411.03;5091911;28;20191;-59
2022/04/20 07:14:49;;;;;;;30.10;17.97;;;;;;;9.77;68.90;99407.78;5091830;28;20310;-61
2022/04/20 07:17:16;;;;;;;20.50;17.07;;;;;;;9.79;68.01;99395.84;5092340;28;20195;-59
2022/04/20 07:19:43;;;;;;;19.83;16.70;;;;;;;9.79;67.87;99400.97;5092080;28;20281;-60
2022/04/20 07:22:10;;;;;;;23.23;18.30;;;;;;;9.76;67.80;99394.09;5089117;28;20301;-60
2022/04/20 07:24:36;;;;;;;25.98;22.67;;;;;;;9.78;68.44;99394.13;5096459;28;20449;-59
2022/04/20 07:27:04;;;;;;;27.53;21.73;;;;;;;9.82;68.35;99386.50;5090998;28;20696;-59
2022/04/20 07:29:32;;;;;;;31.33;20.83;;;;;;;9.82;68.71;99389.06;5091950;28;20673;-60
2022/04/20 07:31:59;;;;;;;26.30;21.60;;;;;;;9.82;69.29;99396.75;5091731;28;20198;-60
2022/04/20 07:34:26;;;;;;;29.53;22.60;;;;;;;9.88;69.38;99402.00;5092500;28;20205;-59
2022/04/20 07:36:52;;;;;;;26.33;21.17;;;;;;;9.72;69.56;99389.75;5091709;28;20215;-59
2022/04/20 07:39:19;;;;;;;30.80;22.10;;;;;;;9.56;70.36;99392.00;5091804;28;20190;-59
2022/04/20 07:41:46;;;;;;;28.52;23.58;;;;;;;9.10;71.81;99385.97;5091542;28;20842;-59
2022/04/20 07:44:13;;;;;;;29.63;23.07;;;;;;;9.17;72.46;99398.09;5091722;28;20237;-59
2022/04/20 07:46:41;;;;;;;30.70;20.60;;;;;;;9.34;72.43;99395.84;5091496;28;20302;-59
2022/04/20 07:51:49;;;;;;;26.07;19.80;;;;;;;9.44;72.27;99377.25;5090640;28;20240;-60
2022/04/20 07:54:16;;;;;;;24.70;18.90;;;;;;;9.49;72.06;99375.63;5091966;28;20193;-60
2022/04/20 07:56:43;;;;;;;23.27;18.20;;;;;;;9.53;71.83;99371.44;5091613;28;20526;-60
2022/04/20 07:59:10;;;;;;;24.67;18.80;;;;;;;9.50;71.70;99370.50;5091716;28;20227;-60
2022/04/20 08:01:36;;;;;;;28.07;19.10;;;;;;;9.47;71.70;99374.75;5099340;28;20581;-60
2022/04/20 08:04:05;;;;;;;22.87;17.77;;;;;;;9.59;71.69;99374.09;5104928;28;20210;-60
2022/04/20 08:06:33;;;;;;;27.47;20.63;;;;;;;9.63;71.68;99383.56;5091283;28;20190;-60
2022/04/20 08:09:00;;;;;;;25.60;19.20;;;;;;;9.77;71.23;99387.25;5091354;28;20198;-60
2022/04/20 08:11:28;;;;;;;21.50;18.70;;;;;;;9.76;71.25;99399.22;5090848;28;20226;-60
2022/04/20 08:14:14;;;;;;;20.50;18.20;;;;;;;9.86;70.68;99403.66;5090965;28;20195;-60
2022/04/20 08:16:41;;;;;;;22.93;17.67;;;;;;;9.87;71.04;99399.41;5091315;28;20290;-61
2022/04/20 08:19:10;;;;;;;27.33;19.57;;;;;;;9.86;70.50;99390.81;5091213;28;20198;-60
2022/04/20 08:21:38;;;;;;;20.87;18.60;;;;;;;9.89;70.44;99388.31;5090986;28;20229;-60
2022/04/20 08:24:06;;;;;;;29.27;25.08;;;;;;;9.87;70.78;99384.88;5098012;28;20927;-60
2022/04/20 08:26:33;;;;;;;29.23;22.10;;;;;;;9.96;70.62;99387.59;5111471;28;20194;-60
2022/04/20 08:29:00;;;;;;;23.67;20.77;;;;;;;9.99;70.41;99389.34;5104657;28;20191;-57
2022/04/20 08:31:27;;;;;;;25.33;20.80;;;;;;;9.93;70.32;99394.38;5087904;28;20660;-55
2022/04/20 08:33:53;;;;;;;28.30;21.93;;;;;;;9.91;70.83;99386.66;5089953;28;20286;-55
2022/04/20 08:36:22;;;;;;;24.27;20.53;;;;;;;10.01;71.11;99390.22;5089454;28;20698;-58
2022/04/20 08:38:49;;;;;;;27.80;21.30;;;;;;;10.03;71.08;99385.97;5090742;28;20299;-57
2022/04/20 08:41:16;;;;;;;27.30;24.23;;;;;;;10.06;71.84;99393.72;5090341;28;20486;-55
2022/04/20 08:43:43;;;;;;;25.13;21.90;;;;;;;10.00;71.35;99402.19;5090472;28;20191;-55
2022/04/20 08:46:11;;;;;;;24.97;20.70;;;;;;;9.91;71.04;99393.50;5099854;28;20198;-56
2022/04/20 08:48:38;;;;;;;23.93;19.67;;;;;;;9.94;71.68;99401.25;5110720;28;20190;-55
2022/04/20 08:51:07;;;;;;;24.30;20.47;;;;;;;9.84;72.08;99389.06;5110414;28;20193;-56
2022/04/20 08:53:36;;;;;;;23.33;19.73;;;;;;;9.78;73.08;99386.44;5110617;28;20182;-55
2022/04/20 08:58:50;;;;;;;28.37;21.40;;;;;;;9.38;74.46;99375.44;5085724;28;20213;-59
2022/04/20 09:01:17;;;;;;;26.30;21.60;;;;;;;9.36;75.94;99369.44;5089067;28;21044;-60
2022/04/20 09:03:46;;;;;;;24.73;20.90;;;;;;;9.42;76.66;99368.69;5090290;28;20195;-60
2022/04/20 09:06:14;;;;;;;27.63;21.17;;;;;;;9.44;76.03;99372.13;5087041;28;20187;-59
2022/04/20 09:08:44;;;;;;;22.50;20.03;;;;;;;9.45;75.51;99366.13;5086813;28;20190;-60
2022/04/20 09:11:11;;;;;;;25.83;21.50;;;;;;;9.34;76.24;99376.19;5086835;28;20269;-59
2022/04/20 09:13:41;;;;;;;27.83;24.00;;;;;;;9.21;77.51;99346.03;5089937;28;20192;-60
2022/04/20 09:16:10;;;;;;;29.73;25.70;;;;;;;9.33;78.23;99365.94;5089141;28;20436;-60
2022/04/20 09:18:38;;;;;;;29.27;24.53;;;;;;;9.19;nan;99355.41;5090173;28;20236;-59
2022/04/20 09:21:06;;;;;;;29.77;22.97;;;;;;;9.35;78.03;99370.25;5090053;28;20276;-60
2022/04/20 09:23:34;;;;;;;28.10;23.30;;;;;;;9.50;79.33;99373.09;5089620;28;20593;-60
2022/04/20 09:26:10;;;;;;;24.90;22.23;;;;;;;9.50;78.52;99364.56;5089476;28;20226;-59
2022/04/20 09:28:40;;;;;;;27.60;23.53;;;;;;;9.59;79.02;99369.81;5090004;28;20269;-58
2022/04/20 09:31:09;;;;;;;30.20;24.27;;;;;;;9.61;78.99;99369.88;5089848;28;20624;-59
2022/04/20 09:33:43;;;;;;;27.90;23.43;;;;;;;9.60;77.42;99369.00;5089094;28;20191;-59
2022/04/20 09:36:12;;;;;;;30.88;27.70;;;;;;;9.67;78.43;99354.59;5088934;28;20437;-59
2022/04/20 09:38:41;;;;;;;25.90;22.83;;;;;;;9.50;76.85;99341.47;5089659;28;20639;-59
2022/04/20 09:41:10;;;;;;;26.83;22.97;;;;;;;9.58;76.70;99339.91;5090100;28;20226;-59
2022/04/20 09:43:38;;;;;;;29.77;23.33;;;;;;;9.50;76.92;99341.47;5087975;28;20204;-59
2022/04/20 09:48:50;;;;;;;28.47;24.53;;;;;;;9.34;77.56;99317.22;5087401;28;20978;-60
2022/04/20 09:49:02;;;;;;;28.87;25.73;;;;;;;9.58;78.10;99350.16;5089243;28;20190;-60
2022/04/20 09:51:37;;;;;;;28.73;25.50;;;;;;;9.59;77.71;99343.31;5087246;28;20649;-60
2022/04/20 09:54:04;;;;;;;31.43;25.73;;;;;;;9.75;78.58;99342.75;5086553;28;20268;-60
2022/04/20 09:56:32;;;;;;;31.57;25.83;;;;;;;9.73;78.09;99323.88;5089217;28;20279;-60
2022/04/20 09:59:00;;;;;;;28.93;24.07;;;;;;;9.73;77.18;99327.31;5089046;28;20211;-60
2022/04/20 10:01:32;;;;;;;28.00;24.43;;;;;;;9.81;76.91;99333.44;5088626;28;20273;-60
2022/04/20 10:04:00;;;;;;;31.07;26.70;;;;;;;9.86;76.57;99329.25;5089023;28;20197;-60
2022/04/20 10:06:27;;;;;;;28.30;24.37;;;;;;;9.92;76.34;99320.78;5088562;28;20190;-60
2022/04/20 10:08:54;;;;;;;30.67;24.77;;;;;;;9.95;76.46;99311.44;5087503;28;20404;-59
2022/04/20 10:11:22;;;;;;;35.47;25.00;;;;;;;10.05;76.23;99308.16;5088137;28;20183;-57
2022/04/20 10:16:05;;;;;;;29.90;25.63;;;;;;;10.15;76.61;99303.22;5089158;28;20252;-57
2022/04/20 10:16:47;;;;;;;30.00;24.60;;;;;;;10.11;76.30;99296.28;5089894;28;20875;-56
2022/04/20 10:19:15;;;;;;;30.17;24.17;;;;;;;10.12;75.01;99293.72;5091974;28;20202;-56
2022/04/20 10:21:52;;;;;;;31.00;26.33;;;;;;;10.28;75.84;99285.44;5092520;28;20222;-57
2022/04/20 10:24:25;;;;;;;31.97;25.63;;;;;;;10.31;74.13;99275.22;5092545;28;20191;-57
2022/04/20 10:26:52;;;;;;;30.17;24.60;;;;;;;10.42;74.86;99276.22;5093242;28;20210;-56
2022/04/20 10:29:28;;;;;;;28.80;24.87;;;;;;;10.53;74.00;99279.78;5092611;28;20263;-56
2022/04/20 10:32:01;;;;;;;33.73;28.53;;;;;;;10.63;74.03;99276.47;5091831;28;20209;-56
2022/04/20 10:34:29;;;;;;;41.27;32.97;;;;;;;10.72;74.89;99277.44;5091472;28;20201;-56
2022/04/20 10:36:58;;;;;;;36.43;30.63;;;;;;;10.55;74.21;99270.38;5091513;28;20190;-56
2022/04/20 10:39:27;;;;;;;36.50;30.03;;;;;;;10.32;74.42;99266.69;5091424;28;20211;-56
2022/04/20 10:42:19;;;;;;;37.17;29.30;;;;;;;10.09;74.52;99263.75;5092278;28;20193;-57
2022/04/20 10:45:00;;;;;;;33.57;28.70;;;;;;;9.97;75.28;99253.28;5091767;28;20198;-56
2022/04/20 10:47:28;;;;;;;36.63;29.10;;;;;;;9.99;76.04;99264.47;5092765;28;20209;-56
2022/04/20 10:50:12;;;;;;;36.50;31.20;;;;;;;10.09;76.07;99261.19;5093359;28;20206;-56
2022/04/20 10:52:41;;;;;;;29.40;26.20;;;;;;;10.30;77.30;99267.50;5093087;28;20195;-56
2022/04/20 10:55:09;;;;;;;33.83;25.83;;;;;;;10.23;73.75;99256.28;5092962;28;20301;-56
2022/04/20 10:57:38;;;;;;;31.53;25.77;;;;;;;10.45;73.89;99257.41;5092843;28;20242;-57
2022/04/20 11:00:33;;;;;;;31.77;26.00;;;;;;;10.59;73.50;99248.16;5092497;28;20194;-56
2022/04/20 11:03:05;;;;;;;33.20;26.80;;;;;;;10.65;72.91;99238.84;5090521;28;20688;-57
2022/04/20 11:05:33;;;;;;;31.90;26.03;;;;;;;10.75;72.25;99228.66;5092329;28;20203;-56
2022/04/20 11:08:05;;;;;;;30.13;24.23;;;;;;;10.94;70.60;99231.44;5092268;28;20244;-56
2022/04/20 11:10:33;;;;;;;29.37;25.27;;;;;;;10.96;70.58;99185.22;5092207;28;20202;-56
2022/04/20 11:19:06;;;;;;;26.53;22.17;;;;;;;11.37;67.96;99212.13;5092108;28;20716;-59
2022/04/20 11:21:33;;;;;;;25.80;22.87;;;;;;;11.48;68.39;99205.34;5079614;28;20232;-60
2022/04/20 11:24:05;;;;;;;26.27;22.27;;;;;;;11.60;67.97;99202.88;5071941;28;20594;-60
2022/04/20 11:26:34;;;;;;;33.07;24.93;;;;;;;11.63;66.86;99199.47;5074310;28;20210;-60
2022/04/20 11:29:08;;;;;;;30.05;26.83;;;;;;;11.81;67.04;99195.34;5074855;28;20483;-59
2022/04/20 11:31:38;;;;;;;32.27;25.20;;;;;;;11.93;66.56;99183.41;5071906;28;20192;-59
2022/04/20 11:34:06;;;;;;;32.30;24.57;;;;;;;11.86;65.89;99182.53;5072182;28;20693;-59
2022/04/20 11:36:33;;;;;;;31.57;25.63;;;;;;;11.69;65.15;99176.41;5071503;28;20229;-60
2022/04/20 11:39:01;;;;;;;31.30;24.60;;;;;;;11.58;65.85;99170.28;5071192;28;20322;-60
2022/04/20 11:41:28;;;;;;;35.07;25.20;;;;;;;11.64;66.61;99173.78;5071351;28;20197;-60
2022/04/20 11:43:55;;;;;;;29.80;23.53;;;;;;;11.32;66.45;99169.25;5072051;28;20232;-60
2022/04/20 11:46:23;;;;;;;27.53;24.43;;;;;;;11.23;67.75;99168.28;5071257;28;20206;-60
2022/04/20 11:48:58;;;;;;;28.70;23.57;;;;;;;11.30;68.08;99169.22;5071495;28;20562;-59
2022/04/20 11:51:27;;;;;;;33.13;25.90;;;;;;;11.34;68.32;99167.53;5070431;28;20199;-60
2022/04/20 11:53:55;;;;;;;31.00;25.60;;;;;;;11.31;67.29;99147.81;5070014;28;20226;-59
2022/04/20 11:56:36;;;;;;;29.50;23.37;;;;;;;11.22;67.04;99151.16;5069954;28;20278;-60
2022/04/20 11:59:06;;;;;;;28.47;22.80;;;;;;;11.33;67.45;99134.94;5069767;28;20305;-60
2022/04/20 12:01:35;;;;;;;27.70;22.97;;;;;;;11.66;67.59;99137.75;5070282;28;20195;-59
2022/04/20 12:04:12;;;;;;;28.20;23.67;;;;;;;11.68;66.65;99103.44;5069963;28;20192;-59
2022/04/20 12:06:44;;;;;;;33.80;25.90;;;;;;;12.15;65.81;99147.47;5070394;28;20191;-60